METAR AND TAF INFORMATION
METAR FOR LHPA
ADDS - METARS form results

(1108 UTC 25 January 2021)
Data provider http://aviationweather.gov/metar/data/
 
METAR text: LHPA 251045Z 30012KT 280V340 9999 FEW033 05/M03 Q1001 NOSIIG RMK BLU
Conditions at: LHPA (PAPA , HU) observed 1045 UTC 25 January 2021
Temperature: 5.0°C (41°F)
Dewpoint: -3.0°C (27°F) [RH = 56%]
Pressure (altimeter): 29.56 inches Hg (1001.0 mb)
Winds: from the WNW (300 degrees) at 14 MPH (12 knots; 6.2 m/s)
Visibility: 6 or more miles (10+ km)
Ceiling: at least 12,000 feet AGL
Clouds: few clouds at 3300 feet AGL
Weather: no significant weather observed at this time

METAR text: LHPA 251015Z 31010KT 280V340 9999 FEW033 05/M03 Q1001 R340///95 NOSIIG RMK BLU
Conditions at: LHPA (PAPA , HU) observed 1015 UTC 25 January 2021
Temperature: 5.0°C (41°F)
Dewpoint: -3.0°C (27°F) [RH = 56%]
Pressure (altimeter): 29.56 inches Hg (1001.0 mb)
Winds: from the NW (310 degrees) at 12 MPH (10 knots; 5.1 m/s)
Visibility: 6 or more miles (10+ km)
Ceiling: at least 12,000 feet AGL
Clouds: few clouds at 3300 feet AGL
Weather: no significant weather observed at this time

 AIRPORT MAP

 RUNWAY INFORMATION
Runway 16 Runway length 7869 ft Runway width 0 ft
Runway elevation 0 ft Runway displaced threshold 0 ft Runway heading 0
Runway 34 Runway length 7869 ft Runway width 0 ft
Runway elevation 0 ft Runway displaced threshold 0 ft Runway heading 0

 AIRPORT FREQUENCIES

 AIRPORT NEAR NAVIGATION AIDS
Type NDB Name Parduc Frequency 481 KHZ
Type NDB Name Parduc Frequency 481 KHZ